sensor_id;sensor_type;location;lat;lon;timestamp;P1;durP1;ratioP1;P2;durP2;ratioP2
4055;SDS011;2043;52.184;8.690;2023-02-28T00:00:36;18.40;;;9.03;;
4055;SDS011;2043;52.184;8.690;2023-02-28T00:03:04;19.10;;;7.97;;
4055;SDS011;2043;52.184;8.690;2023-02-28T00:05:31;19.83;;;8.47;;
4055;SDS011;2043;52.184;8.690;2023-02-28T00:07:58;23.40;;;8.83;;
4055;SDS011;2043;52.184;8.690;2023-02-28T00:10:29;18.63;;;8.83;;
4055;SDS011;2043;52.184;8.690;2023-02-28T00:13:02;16.60;;;7.23;;
4055;SDS011;2043;52.184;8.690;2023-02-28T00:15:30;18.27;;;8.30;;
4055;SDS011;2043;52.184;8.690;2023-02-28T00:17:58;22.70;;;8.90;;
4055;SDS011;2043;52.184;8.690;2023-02-28T00:20:25;15.90;;;7.50;;
4055;SDS011;2043;52.184;8.690;2023-02-28T00:22:53;18.60;;;8.40;;
4055;SDS011;2043;52.184;8.690;2023-02-28T00:25:21;21.53;;;9.30;;
4055;SDS011;2043;52.184;8.690;2023-02-28T00:27:50;17.70;;;8.60;;
4055;SDS011;2043;52.184;8.690;2023-02-28T00:30:18;24.30;;;9.67;;
4055;SDS011;2043;52.184;8.690;2023-02-28T00:32:46;19.50;;;9.13;;
4055;SDS011;2043;52.184;8.690;2023-02-28T00:35:13;21.53;;;9.40;;
4055;SDS011;2043;52.184;8.690;2023-02-28T00:37:40;23.03;;;9.40;;
4055;SDS011;2043;52.184;8.690;2023-02-28T00:40:08;23.73;;;9.77;;
4055;SDS011;2043;52.184;8.690;2023-02-28T00:42:35;23.10;;;9.43;;
4055;SDS011;2043;52.184;8.690;2023-02-28T00:45:02;19.67;;;9.20;;
4055;SDS011;2043;52.184;8.690;2023-02-28T00:47:31;20.83;;;9.43;;
4055;SDS011;2043;52.184;8.690;2023-02-28T00:49:58;16.90;;;9.47;;
4055;SDS011;2043;52.184;8.690;2023-02-28T00:52:25;18.77;;;8.07;;
4055;SDS011;2043;52.184;8.690;2023-02-28T00:54:53;29.40;;;10.90;;
4055;SDS011;2043;52.184;8.690;2023-02-28T00:57:20;16.40;;;8.60;;
4055;SDS011;2043;52.184;8.690;2023-02-28T00:59:47;19.40;;;8.23;;
4055;SDS011;2043;52.184;8.690;2023-02-28T01:02:14;14.70;;;8.00;;
4055;SDS011;2043;52.184;8.690;2023-02-28T01:04:41;19.83;;;7.80;;
4055;SDS011;2043;52.184;8.690;2023-02-28T01:07:08;18.80;;;7.70;;
4055;SDS011;2043;52.184;8.690;2023-02-28T01:09:35;13.23;;;7.70;;
4055;SDS011;2043;52.184;8.690;2023-02-28T01:12:02;14.87;;;6.90;;
4055;SDS011;2043;52.184;8.690;2023-02-28T01:14:29;15.93;;;7.63;;
4055;SDS011;2043;52.184;8.690;2023-02-28T01:16:56;17.10;;;7.80;;
4055;SDS011;2043;52.184;8.690;2023-02-28T01:19:23;16.53;;;7.97;;
4055;SDS011;2043;52.184;8.690;2023-02-28T01:21:50;23.23;;;7.80;;
4055;SDS011;2043;52.184;8.690;2023-02-28T01:24:17;19.70;;;8.50;;
4055;SDS011;2043;52.184;8.690;2023-02-28T01:26:44;20.97;;;7.47;;
4055;SDS011;2043;52.184;8.690;2023-02-28T01:29:11;19.70;;;7.77;;
4055;SDS011;2043;52.184;8.690;2023-02-28T01:31:38;14.37;;;7.40;;
4055;SDS011;2043;52.184;8.690;2023-02-28T01:34:06;16.80;;;8.63;;
4055;SDS011;2043;52.184;8.690;2023-02-28T01:36:33;15.07;;;8.23;;
4055;SDS011;2043;52.184;8.690;2023-02-28T01:39:00;15.43;;;7.83;;
4055;SDS011;2043;52.184;8.690;2023-02-28T01:41:28;16.10;;;7.90;;
4055;SDS011;2043;52.184;8.690;2023-02-28T01:44:07;17.17;;;8.10;;
4055;SDS011;2043;52.184;8.690;2023-02-28T01:47:03;17.13;;;7.90;;
4055;SDS011;2043;52.184;8.690;2023-02-28T01:49:30;19.93;;;8.37;;
4055;SDS011;2043;52.184;8.690;2023-02-28T01:51:57;18.17;;;8.47;;
4055;SDS011;2043;52.184;8.690;2023-02-28T01:54:26;20.27;;;9.63;;
4055;SDS011;2043;52.184;8.690;2023-02-28T01:57:03;18.33;;;8.50;;
4055;SDS011;2043;52.184;8.690;2023-02-28T01:59:40;21.23;;;9.17;;
4055;SDS011;2043;52.184;8.690;2023-02-28T02:02:19;20.10;;;9.00;;
4055;SDS011;2043;52.184;8.690;2023-02-28T02:04:50;21.33;;;9.90;;
4055;SDS011;2043;52.184;8.690;2023-02-28T02:07:24;25.20;;;9.40;;
4055;SDS011;2043;52.184;8.690;2023-02-28T02:10:03;23.63;;;10.30;;
4055;SDS011;2043;52.184;8.690;2023-02-28T02:15:34;16.17;;;7.73;;
4055;SDS011;2043;52.184;8.690;2023-02-28T02:27:27;20.10;;;9.00;;
4055;SDS011;2043;52.184;8.690;2023-02-28T02:33:12;23.70;;;8.90;;
4055;SDS011;2043;52.184;8.690;2023-02-28T02:38:33;21.67;;;9.30;;
4055;SDS011;2043;52.184;8.690;2023-02-28T02:41:08;19.40;;;9.20;;
4055;SDS011;2043;52.184;8.690;2023-02-28T02:43:46;24.90;;;9.07;;
4055;SDS011;2043;52.184;8.690;2023-02-28T02:46:19;15.87;;;8.47;;
4055;SDS011;2043;52.184;8.690;2023-02-28T02:48:49;23.20;;;9.37;;
4055;SDS011;2043;52.184;8.690;2023-02-28T02:51:20;15.70;;;9.43;;
4055;SDS011;2043;52.184;8.690;2023-02-28T02:53:53;18.90;;;9.37;;
4055;SDS011;2043;52.184;8.690;2023-02-28T02:56:28;20.67;;;9.57;;
4055;SDS011;2043;52.184;8.690;2023-02-28T02:59:01;21.17;;;8.70;;
4055;SDS011;2043;52.184;8.690;2023-02-28T03:01:30;16.67;;;8.80;;
4055;SDS011;2043;52.184;8.690;2023-02-28T03:04:03;24.43;;;8.93;;
4055;SDS011;2043;52.184;8.690;2023-02-28T03:06:33;19.60;;;8.50;;
4055;SDS011;2043;52.184;8.690;2023-02-28T03:09:01;22.40;;;9.37;;
4055;SDS011;2043;52.184;8.690;2023-02-28T03:11:28;18.53;;;9.97;;
4055;SDS011;2043;52.184;8.690;2023-02-28T03:14:09;19.27;;;9.47;;
4055;SDS011;2043;52.184;8.690;2023-02-28T03:25:45;31.40;;;9.13;;
4055;SDS011;2043;52.184;8.690;2023-02-28T03:29:12;19.83;;;8.57;;
4055;SDS011;2043;52.184;8.690;2023-02-28T03:31:38;18.47;;;9.30;;
4055;SDS011;2043;52.184;8.690;2023-02-28T03:36:37;22.90;;;9.03;;
4055;SDS011;2043;52.184;8.690;2023-02-28T03:39:17;19.47;;;9.40;;
4055;SDS011;2043;52.184;8.690;2023-02-28T03:44:17;22.37;;;9.03;;
4055;SDS011;2043;52.184;8.690;2023-02-28T03:46:58;22.20;;;9.53;;
4055;SDS011;2043;52.184;8.690;2023-02-28T03:49:38;15.67;;;8.30;;
4055;SDS011;2043;52.184;8.690;2023-02-28T03:52:14;18.20;;;9.20;;
4055;SDS011;2043;52.184;8.690;2023-02-28T03:54:45;21.00;;;8.80;;
4055;SDS011;2043;52.184;8.690;2023-02-28T04:00:27;17.83;;;8.90;;
4055;SDS011;2043;52.184;8.690;2023-02-28T04:02:55;17.13;;;8.60;;
4055;SDS011;2043;52.184;8.690;2023-02-28T04:05:23;20.23;;;8.97;;
4055;SDS011;2043;52.184;8.690;2023-02-28T04:07:50;24.70;;;9.00;;
4055;SDS011;2043;52.184;8.690;2023-02-28T04:10:17;15.83;;;9.00;;
4055;SDS011;2043;52.184;8.690;2023-02-28T04:12:44;20.50;;;9.40;;
4055;SDS011;2043;52.184;8.690;2023-02-28T04:15:11;19.80;;;9.10;;
4055;SDS011;2043;52.184;8.690;2023-02-28T04:17:38;21.80;;;9.23;;
4055;SDS011;2043;52.184;8.690;2023-02-28T04:20:06;17.50;;;8.87;;
4055;SDS011;2043;52.184;8.690;2023-02-28T04:22:36;21.10;;;8.17;;
4055;SDS011;2043;52.184;8.690;2023-02-28T04:25:03;17.83;;;8.80;;
4055;SDS011;2043;52.184;8.690;2023-02-28T04:27:31;19.90;;;9.03;;
4055;SDS011;2043;52.184;8.690;2023-02-28T04:29:58;20.53;;;8.90;;
4055;SDS011;2043;52.184;8.690;2023-02-28T04:32:25;14.77;;;7.90;;
4055;SDS011;2043;52.184;8.690;2023-02-28T04:38:14;19.30;;;9.60;;
4055;SDS011;2043;52.184;8.690;2023-02-28T04:40:41;19.10;;;8.83;;
4055;SDS011;2043;52.184;8.690;2023-02-28T04:43:08;20.93;;;8.77;;
4055;SDS011;2043;52.184;8.690;2023-02-28T04:45:36;16.93;;;7.83;;
4055;SDS011;2043;52.184;8.690;2023-02-28T04:48:03;23.40;;;8.60;;
4055;SDS011;2043;52.184;8.690;2023-02-28T04:50:30;21.90;;;9.17;;
4055;SDS011;2043;52.184;8.690;2023-02-28T04:52:57;20.00;;;7.97;;
4055;SDS011;2043;52.184;8.690;2023-02-28T04:55:24;17.10;;;8.30;;
4055;SDS011;2043;52.184;8.690;2023-02-28T04:57:51;16.23;;;7.17;;
4055;SDS011;2043;52.184;8.690;2023-02-28T05:00:19;16.23;;;8.87;;
4055;SDS011;2043;52.184;8.690;2023-02-28T05:02:46;11.27;;;6.50;;
4055;SDS011;2043;52.184;8.690;2023-02-28T05:05:13;21.13;;;7.27;;
4055;SDS011;2043;52.184;8.690;2023-02-28T05:07:44;18.37;;;7.80;;
4055;SDS011;2043;52.184;8.690;2023-02-28T05:10:11;19.17;;;7.90;;
4055;SDS011;2043;52.184;8.690;2023-02-28T05:12:38;21.30;;;8.30;;
4055;SDS011;2043;52.184;8.690;2023-02-28T05:15:06;15.97;;;6.80;;
4055;SDS011;2043;52.184;8.690;2023-02-28T05:17:34;18.93;;;7.70;;
4055;SDS011;2043;52.184;8.690;2023-02-28T05:20:01;17.47;;;7.17;;
4055;SDS011;2043;52.184;8.690;2023-02-28T05:22:40;22.00;;;7.20;;
4055;SDS011;2043;52.184;8.690;2023-02-28T05:25:09;22.10;;;8.20;;
4055;SDS011;2043;52.184;8.690;2023-02-28T05:27:38;23.30;;;7.97;;
4055;SDS011;2043;52.184;8.690;2023-02-28T05:30:06;16.03;;;6.60;;
4055;SDS011;2043;52.184;8.690;2023-02-28T05:32:37;15.33;;;6.47;;
4055;SDS011;2043;52.184;8.690;2023-02-28T05:35:04;13.03;;;6.07;;
4055;SDS011;2043;52.184;8.690;2023-02-28T05:37:31;16.10;;;7.17;;
4055;SDS011;2043;52.184;8.690;2023-02-28T05:39:58;25.23;;;8.80;;
4055;SDS011;2043;52.184;8.690;2023-02-28T05:42:25;16.30;;;7.07;;
4055;SDS011;2043;52.184;8.690;2023-02-28T05:44:52;21.57;;;8.53;;
4055;SDS011;2043;52.184;8.690;2023-02-28T05:47:19;17.53;;;8.63;;
4055;SDS011;2043;52.184;8.690;2023-02-28T05:49:46;21.07;;;8.77;;
4055;SDS011;2043;52.184;8.690;2023-02-28T05:52:13;17.47;;;7.80;;
4055;SDS011;2043;52.184;8.690;2023-02-28T05:54:41;20.40;;;8.90;;
4055;SDS011;2043;52.184;8.690;2023-02-28T05:57:08;29.30;;;8.60;;
4055;SDS011;2043;52.184;8.690;2023-02-28T05:59:49;18.30;;;8.60;;
4055;SDS011;2043;52.184;8.690;2023-02-28T06:02:16;17.23;;;8.53;;
4055;SDS011;2043;52.184;8.690;2023-02-28T06:04:43;19.03;;;8.40;;
4055;SDS011;2043;52.184;8.690;2023-02-28T06:07:10;21.17;;;8.97;;
4055;SDS011;2043;52.184;8.690;2023-02-28T06:09:37;19.03;;;8.30;;
4055;SDS011;2043;52.184;8.690;2023-02-28T06:12:05;25.50;;;9.40;;
4055;SDS011;2043;52.184;8.690;2023-02-28T06:14:33;23.30;;;9.00;;
4055;SDS011;2043;52.184;8.690;2023-02-28T06:17:00;18.20;;;8.67;;
4055;SDS011;2043;52.184;8.690;2023-02-28T06:19:28;20.03;;;8.27;;
4055;SDS011;2043;52.184;8.690;2023-02-28T06:21:56;21.37;;;9.00;;
4055;SDS011;2043;52.184;8.690;2023-02-28T06:24:23;22.70;;;8.60;;
4055;SDS011;2043;52.184;8.690;2023-02-28T06:26:54;21.53;;;9.00;;
4055;SDS011;2043;52.184;8.690;2023-02-28T06:29:21;28.63;;;9.20;;
4055;SDS011;2043;52.184;8.690;2023-02-28T06:31:48;30.40;;;9.60;;
4055;SDS011;2043;52.184;8.690;2023-02-28T06:34:15;22.23;;;8.33;;
4055;SDS011;2043;52.184;8.690;2023-02-28T06:36:42;22.90;;;9.80;;
4055;SDS011;2043;52.184;8.690;2023-02-28T06:39:10;24.63;;;8.10;;
4055;SDS011;2043;52.184;8.690;2023-02-28T06:41:37;18.90;;;8.60;;
4055;SDS011;2043;52.184;8.690;2023-02-28T06:44:19;18.23;;;8.07;;
4055;SDS011;2043;52.184;8.690;2023-02-28T06:46:47;17.93;;;8.07;;
4055;SDS011;2043;52.184;8.690;2023-02-28T06:49:14;17.13;;;8.20;;
4055;SDS011;2043;52.184;8.690;2023-02-28T06:51:42;17.10;;;8.60;;
4055;SDS011;2043;52.184;8.690;2023-02-28T06:54:13;21.00;;;9.43;;
4055;SDS011;2043;52.184;8.690;2023-02-28T06:56:39;19.93;;;9.67;;
4055;SDS011;2043;52.184;8.690;2023-02-28T06:59:07;22.47;;;9.10;;
4055;SDS011;2043;52.184;8.690;2023-02-28T07:01:34;21.77;;;9.67;;
4055;SDS011;2043;52.184;8.690;2023-02-28T07:04:01;25.20;;;9.93;;
4055;SDS011;2043;52.184;8.690;2023-02-28T07:06:28;21.60;;;9.97;;
4055;SDS011;2043;52.184;8.690;2023-02-28T07:08:55;21.33;;;9.90;;
4055;SDS011;2043;52.184;8.690;2023-02-28T07:11:23;18.60;;;9.93;;
4055;SDS011;2043;52.184;8.690;2023-02-28T07:13:55;19.73;;;10.13;;
4055;SDS011;2043;52.184;8.690;2023-02-28T07:16:23;20.10;;;9.83;;
4055;SDS011;2043;52.184;8.690;2023-02-28T07:18:54;27.23;;;9.67;;
4055;SDS011;2043;52.184;8.690;2023-02-28T07:21:22;17.50;;;8.60;;
4055;SDS011;2043;52.184;8.690;2023-02-28T07:23:49;17.07;;;8.73;;
4055;SDS011;2043;52.184;8.690;2023-02-28T07:26:16;17.73;;;8.93;;
4055;SDS011;2043;52.184;8.690;2023-02-28T07:28:45;19.37;;;8.33;;
4055;SDS011;2043;52.184;8.690;2023-02-28T07:31:13;18.03;;;8.87;;
4055;SDS011;2043;52.184;8.690;2023-02-28T07:33:42;18.27;;;9.03;;
4055;SDS011;2043;52.184;8.690;2023-02-28T07:36:10;25.97;;;10.40;;
4055;SDS011;2043;52.184;8.690;2023-02-28T07:38:41;25.07;;;11.93;;
4055;SDS011;2043;52.184;8.690;2023-02-28T07:41:13;32.80;;;13.77;;
4055;SDS011;2043;52.184;8.690;2023-02-28T07:43:41;31.33;;;15.07;;
4055;SDS011;2043;52.184;8.690;2023-02-28T07:46:09;39.87;;;18.70;;
4055;SDS011;2043;52.184;8.690;2023-02-28T07:48:37;54.60;;;23.77;;
4055;SDS011;2043;52.184;8.690;2023-02-28T07:51:04;73.87;;;33.03;;
4055;SDS011;2043;52.184;8.690;2023-02-28T07:53:31;173.47;;;64.63;;
4055;SDS011;2043;52.184;8.690;2023-02-28T07:55:59;171.07;;;62.80;;
4055;SDS011;2043;52.184;8.690;2023-02-28T07:58:28;142.70;;;53.13;;
4055;SDS011;2043;52.184;8.690;2023-02-28T08:00:56;100.50;;;42.43;;
4055;SDS011;2043;52.184;8.690;2023-02-28T08:03:23;76.53;;;32.20;;
4055;SDS011;2043;52.184;8.690;2023-02-28T08:05:51;77.03;;;31.13;;
4055;SDS011;2043;52.184;8.690;2023-02-28T08:08:18;29.07;;;15.00;;
4055;SDS011;2043;52.184;8.690;2023-02-28T08:10:45;33.33;;;12.97;;
4055;SDS011;2043;52.184;8.690;2023-02-28T08:13:12;23.70;;;12.50;;
4055;SDS011;2043;52.184;8.690;2023-02-28T08:15:40;21.57;;;12.20;;
4055;SDS011;2043;52.184;8.690;2023-02-28T08:18:09;28.83;;;13.73;;
4055;SDS011;2043;52.184;8.690;2023-02-28T08:20:36;35.27;;;18.00;;
4055;SDS011;2043;52.184;8.690;2023-02-28T08:23:03;31.47;;;17.20;;
4055;SDS011;2043;52.184;8.690;2023-02-28T08:25:29;30.20;;;15.20;;
4055;SDS011;2043;52.184;8.690;2023-02-28T08:27:56;23.47;;;11.90;;
4055;SDS011;2043;52.184;8.690;2023-02-28T08:30:23;28.80;;;12.33;;
4055;SDS011;2043;52.184;8.690;2023-02-28T08:32:50;24.83;;;9.97;;
4055;SDS011;2043;52.184;8.690;2023-02-28T08:35:16;16.20;;;9.07;;
4055;SDS011;2043;52.184;8.690;2023-02-28T08:37:43;19.43;;;9.97;;
4055;SDS011;2043;52.184;8.690;2023-02-28T08:40:10;16.17;;;9.50;;
4055;SDS011;2043;52.184;8.690;2023-02-28T08:42:44;17.30;;;9.77;;
4055;SDS011;2043;52.184;8.690;2023-02-28T08:45:12;18.43;;;9.33;;
4055;SDS011;2043;52.184;8.690;2023-02-28T08:47:40;15.47;;;8.93;;
4055;SDS011;2043;52.184;8.690;2023-02-28T08:50:07;16.43;;;9.07;;
4055;SDS011;2043;52.184;8.690;2023-02-28T08:52:34;16.07;;;8.93;;
4055;SDS011;2043;52.184;8.690;2023-02-28T08:55:01;14.03;;;8.57;;
4055;SDS011;2043;52.184;8.690;2023-02-28T08:57:28;19.10;;;8.40;;
4055;SDS011;2043;52.184;8.690;2023-02-28T08:59:54;17.97;;;7.27;;
4055;SDS011;2043;52.184;8.690;2023-02-28T09:02:21;13.53;;;8.00;;
4055;SDS011;2043;52.184;8.690;2023-02-28T09:04:48;15.97;;;7.93;;
4055;SDS011;2043;52.184;8.690;2023-02-28T09:07:15;13.10;;;8.17;;
4055;SDS011;2043;52.184;8.690;2023-02-28T09:09:42;17.83;;;7.03;;
4055;SDS011;2043;52.184;8.690;2023-02-28T09:12:20;12.83;;;6.80;;
4055;SDS011;2043;52.184;8.690;2023-02-28T09:14:48;10.80;;;6.50;;
4055;SDS011;2043;52.184;8.690;2023-02-28T09:17:15;11.57;;;6.60;;
4055;SDS011;2043;52.184;8.690;2023-02-28T09:19:42;12.40;;;4.90;;
4055;SDS011;2043;52.184;8.690;2023-02-28T09:22:09;8.50;;;4.90;;
4055;SDS011;2043;52.184;8.690;2023-02-28T09:24:37;10.30;;;5.50;;
4055;SDS011;2043;52.184;8.690;2023-02-28T09:27:05;12.97;;;7.20;;
4055;SDS011;2043;52.184;8.690;2023-02-28T09:29:33;8.53;;;4.97;;
4055;SDS011;2043;52.184;8.690;2023-02-28T09:32:00;13.83;;;6.10;;
4055;SDS011;2043;52.184;8.690;2023-02-28T09:34:28;10.67;;;5.53;;
4055;SDS011;2043;52.184;8.690;2023-02-28T09:36:58;12.40;;;5.30;;
4055;SDS011;2043;52.184;8.690;2023-02-28T09:39:25;8.07;;;4.93;;
4055;SDS011;2043;52.184;8.690;2023-02-28T09:41:53;11.43;;;5.93;;
4055;SDS011;2043;52.184;8.690;2023-02-28T09:47:16;12.90;;;6.10;;
4055;SDS011;2043;52.184;8.690;2023-02-28T09:49:57;7.40;;;4.17;;
4055;SDS011;2043;52.184;8.690;2023-02-28T09:52:30;7.80;;;3.80;;
4055;SDS011;2043;52.184;8.690;2023-02-28T09:55:15;7.43;;;4.50;;
4055;SDS011;2043;52.184;8.690;2023-02-28T09:57:57;9.03;;;5.03;;
4055;SDS011;2043;52.184;8.690;2023-02-28T10:00:30;7.80;;;3.83;;
4055;SDS011;2043;52.184;8.690;2023-02-28T10:03:09;5.20;;;3.00;;
4055;SDS011;2043;52.184;8.690;2023-02-28T10:06:05;7.60;;;3.43;;
4055;SDS011;2043;52.184;8.690;2023-02-28T10:11:29;8.90;;;3.37;;
4055;SDS011;2043;52.184;8.690;2023-02-28T10:14:01;15.37;;;5.00;;
4055;SDS011;2043;52.184;8.690;2023-02-28T10:16:44;7.90;;;4.17;;
4055;SDS011;2043;52.184;8.690;2023-02-28T10:19:21;7.00;;;2.83;;
4055;SDS011;2043;52.184;8.690;2023-02-28T10:22:00;6.87;;;3.80;;
4055;SDS011;2043;52.184;8.690;2023-02-28T10:24:42;6.87;;;3.30;;
4055;SDS011;2043;52.184;8.690;2023-02-28T10:27:23;5.33;;;3.10;;
4055;SDS011;2043;52.184;8.690;2023-02-28T10:29:55;7.80;;;3.77;;
4055;SDS011;2043;52.184;8.690;2023-02-28T10:32:24;7.07;;;3.50;;
4055;SDS011;2043;52.184;8.690;2023-02-28T10:37:27;9.17;;;3.50;;
4055;SDS011;2043;52.184;8.690;2023-02-28T10:39:54;8.10;;;3.77;;
4055;SDS011;2043;52.184;8.690;2023-02-28T10:42:26;7.00;;;3.53;;
4055;SDS011;2043;52.184;8.690;2023-02-28T10:45:10;6.80;;;3.03;;
4055;SDS011;2043;52.184;8.690;2023-02-28T10:47:57;7.90;;;3.43;;
4055;SDS011;2043;52.184;8.690;2023-02-28T10:52:53;6.37;;;3.80;;
4055;SDS011;2043;52.184;8.690;2023-02-28T10:55:24;8.70;;;4.23;;
4055;SDS011;2043;52.184;8.690;2023-02-28T10:57:52;6.63;;;3.70;;
4055;SDS011;2043;52.184;8.690;2023-02-28T11:00:22;6.70;;;3.67;;
4055;SDS011;2043;52.184;8.690;2023-02-28T11:02:53;11.70;;;3.60;;
4055;SDS011;2043;52.184;8.690;2023-02-28T11:08:16;7.80;;;3.10;;
4055;SDS011;2043;52.184;8.690;2023-02-28T11:10:54;9.27;;;3.60;;
4055;SDS011;2043;52.184;8.690;2023-02-28T11:13:33;5.47;;;3.20;;
4055;SDS011;2043;52.184;8.690;2023-02-28T11:16:05;6.53;;;3.50;;
4055;SDS011;2043;52.184;8.690;2023-02-28T11:18:50;10.87;;;3.10;;
4055;SDS011;2043;52.184;8.690;2023-02-28T11:26:41;9.70;;;3.97;;
4055;SDS011;2043;52.184;8.690;2023-02-28T11:29:16;6.67;;;3.70;;
4055;SDS011;2043;52.184;8.690;2023-02-28T11:34:39;7.93;;;4.17;;
4055;SDS011;2043;52.184;8.690;2023-02-28T11:37:12;10.23;;;3.53;;
4055;SDS011;2043;52.184;8.690;2023-02-28T11:39:41;6.70;;;3.70;;
4055;SDS011;2043;52.184;8.690;2023-02-28T11:45:20;6.73;;;3.30;;
4055;SDS011;2043;52.184;8.690;2023-02-28T11:55:59;7.93;;;4.70;;
4055;SDS011;2043;52.184;8.690;2023-02-28T12:07:21;6.20;;;2.77;;
4055;SDS011;2043;52.184;8.690;2023-02-28T12:12:59;5.63;;;2.93;;
4055;SDS011;2043;52.184;8.690;2023-02-28T12:15:49;5.37;;;2.70;;
4055;SDS011;2043;52.184;8.690;2023-02-28T12:18:30;4.60;;;2.53;;
4055;SDS011;2043;52.184;8.690;2023-02-28T12:21:36;5.70;;;2.83;;
4055;SDS011;2043;52.184;8.690;2023-02-28T12:27:17;6.50;;;2.67;;
4055;SDS011;2043;52.184;8.690;2023-02-28T12:29:56;11.70;;;2.60;;
4055;SDS011;2043;52.184;8.690;2023-02-28T12:32:29;10.37;;;3.00;;
4055;SDS011;2043;52.184;8.690;2023-02-28T12:40:12;4.93;;;2.70;;
4055;SDS011;2043;52.184;8.690;2023-02-28T12:42:41;5.43;;;3.20;;
4055;SDS011;2043;52.184;8.690;2023-02-28T12:45:14;6.43;;;3.50;;
4055;SDS011;2043;52.184;8.690;2023-02-28T12:47:52;6.57;;;3.37;;
4055;SDS011;2043;52.184;8.690;2023-02-28T12:50:27;5.97;;;2.67;;
4055;SDS011;2043;52.184;8.690;2023-02-28T12:55:52;4.60;;;2.60;;
4055;SDS011;2043;52.184;8.690;2023-02-28T13:03:46;8.47;;;3.70;;
4055;SDS011;2043;52.184;8.690;2023-02-28T13:09:19;10.03;;;3.27;;
4055;SDS011;2043;52.184;8.690;2023-02-28T13:11:48;5.80;;;2.57;;
4055;SDS011;2043;52.184;8.690;2023-02-28T13:19:45;11.10;;;3.90;;
4055;SDS011;2043;52.184;8.690;2023-02-28T13:27:59;9.17;;;3.20;;
4055;SDS011;2043;52.184;8.690;2023-02-28T13:33:35;11.53;;;4.13;;
4055;SDS011;2043;52.184;8.690;2023-02-28T13:46:30;6.10;;;3.60;;
4055;SDS011;2043;52.184;8.690;2023-02-28T14:05:15;6.27;;;3.40;;
4055;SDS011;2043;52.184;8.690;2023-02-28T14:07:59;4.50;;;2.80;;
4055;SDS011;2043;52.184;8.690;2023-02-28T14:10:44;12.60;;;3.30;;
4055;SDS011;2043;52.184;8.690;2023-02-28T14:15:55;5.90;;;3.30;;
4055;SDS011;2043;52.184;8.690;2023-02-28T14:21:08;6.80;;;3.20;;
4055;SDS011;2043;52.184;8.690;2023-02-28T14:29:59;6.37;;;3.60;;
4055;SDS011;2043;52.184;8.690;2023-02-28T14:38:21;5.73;;;3.10;;
4055;SDS011;2043;52.184;8.690;2023-02-28T14:40:55;4.97;;;2.90;;
4055;SDS011;2043;52.184;8.690;2023-02-28T14:43:25;6.73;;;3.50;;
4055;SDS011;2043;52.184;8.690;2023-02-28T14:46:00;11.53;;;4.23;;
4055;SDS011;2043;52.184;8.690;2023-02-28T14:48:28;5.60;;;3.20;;
4055;SDS011;2043;52.184;8.690;2023-02-28T14:50:59;7.43;;;3.50;;
4055;SDS011;2043;52.184;8.690;2023-02-28T14:53:28;7.83;;;3.60;;
4055;SDS011;2043;52.184;8.690;2023-02-28T14:55:56;6.20;;;3.43;;
4055;SDS011;2043;52.184;8.690;2023-02-28T14:58:27;8.53;;;3.53;;
4055;SDS011;2043;52.184;8.690;2023-02-28T15:00:57;6.17;;;3.50;;
4055;SDS011;2043;52.184;8.690;2023-02-28T15:06:00;7.30;;;3.50;;
4055;SDS011;2043;52.184;8.690;2023-02-28T15:08:28;6.73;;;3.00;;
4055;SDS011;2043;52.184;8.690;2023-02-28T15:10:58;6.93;;;3.47;;
4055;SDS011;2043;52.184;8.690;2023-02-28T15:13:38;8.60;;;4.10;;
4055;SDS011;2043;52.184;8.690;2023-02-28T15:16:09;9.00;;;3.83;;
4055;SDS011;2043;52.184;8.690;2023-02-28T15:21:35;7.00;;;3.60;;
4055;SDS011;2043;52.184;8.690;2023-02-28T15:26:59;6.60;;;3.50;;
4055;SDS011;2043;52.184;8.690;2023-02-28T15:29:30;7.63;;;3.73;;
4055;SDS011;2043;52.184;8.690;2023-02-28T15:32:03;8.10;;;3.63;;
4055;SDS011;2043;52.184;8.690;2023-02-28T15:34:43;8.47;;;3.60;;
4055;SDS011;2043;52.184;8.690;2023-02-28T15:43:06;9.30;;;3.83;;
4055;SDS011;2043;52.184;8.690;2023-02-28T15:45:46;11.10;;;4.33;;
4055;SDS011;2043;52.184;8.690;2023-02-28T15:48:18;6.27;;;3.90;;
4055;SDS011;2043;52.184;8.690;2023-02-28T15:50:47;8.97;;;3.83;;
4055;SDS011;2043;52.184;8.690;2023-02-28T15:53:27;8.77;;;4.20;;
4055;SDS011;2043;52.184;8.690;2023-02-28T15:55:59;9.20;;;3.83;;
4055;SDS011;2043;52.184;8.690;2023-02-28T15:58:28;13.30;;;3.57;;
4055;SDS011;2043;52.184;8.690;2023-02-28T16:01:04;10.50;;;3.43;;
4055;SDS011;2043;52.184;8.690;2023-02-28T16:03:52;16.27;;;3.97;;
4055;SDS011;2043;52.184;8.690;2023-02-28T16:08:56;9.83;;;3.70;;
4055;SDS011;2043;52.184;8.690;2023-02-28T16:11:24;7.87;;;3.67;;
4055;SDS011;2043;52.184;8.690;2023-02-28T16:13:51;4.80;;;3.30;;
4055;SDS011;2043;52.184;8.690;2023-02-28T16:16:19;13.37;;;4.30;;
4055;SDS011;2043;52.184;8.690;2023-02-28T16:18:48;10.03;;;3.70;;
4055;SDS011;2043;52.184;8.690;2023-02-28T16:21:15;8.87;;;3.50;;
4055;SDS011;2043;52.184;8.690;2023-02-28T16:23:42;9.80;;;4.50;;
4055;SDS011;2043;52.184;8.690;2023-02-28T16:26:14;7.50;;;4.07;;
4055;SDS011;2043;52.184;8.690;2023-02-28T16:28:48;10.13;;;3.93;;
4055;SDS011;2043;52.184;8.690;2023-02-28T16:31:16;8.87;;;3.80;;
4055;SDS011;2043;52.184;8.690;2023-02-28T16:33:43;6.70;;;3.80;;
4055;SDS011;2043;52.184;8.690;2023-02-28T16:36:21;11.23;;;4.43;;
4055;SDS011;2043;52.184;8.690;2023-02-28T16:38:51;9.80;;;4.10;;
4055;SDS011;2043;52.184;8.690;2023-02-28T16:41:19;11.93;;;4.30;;
4055;SDS011;2043;52.184;8.690;2023-02-28T16:43:48;18.20;;;5.10;;
4055;SDS011;2043;52.184;8.690;2023-02-28T16:46:17;10.57;;;4.60;;
4055;SDS011;2043;52.184;8.690;2023-02-28T16:48:45;12.83;;;4.30;;
4055;SDS011;2043;52.184;8.690;2023-02-28T16:51:15;7.73;;;4.20;;
4055;SDS011;2043;52.184;8.690;2023-02-28T16:53:43;10.43;;;4.63;;
4055;SDS011;2043;52.184;8.690;2023-02-28T16:56:20;11.47;;;4.87;;
4055;SDS011;2043;52.184;8.690;2023-02-28T16:58:50;19.00;;;5.00;;
4055;SDS011;2043;52.184;8.690;2023-02-28T17:01:17;10.90;;;4.60;;
4055;SDS011;2043;52.184;8.690;2023-02-28T17:03:48;8.93;;;4.33;;
4055;SDS011;2043;52.184;8.690;2023-02-28T17:06:19;8.90;;;4.80;;
4055;SDS011;2043;52.184;8.690;2023-02-28T17:08:51;9.45;;;4.90;;
4055;SDS011;2043;52.184;8.690;2023-02-28T17:11:18;9.30;;;5.10;;
4055;SDS011;2043;52.184;8.690;2023-02-28T17:13:46;10.73;;;5.00;;
4055;SDS011;2043;52.184;8.690;2023-02-28T17:18:58;14.10;;;4.90;;
4055;SDS011;2043;52.184;8.690;2023-02-28T17:21:27;14.60;;;6.63;;
4055;SDS011;2043;52.184;8.690;2023-02-28T17:23:55;14.00;;;6.80;;
4055;SDS011;2043;52.184;8.690;2023-02-28T17:26:22;19.70;;;8.27;;
4055;SDS011;2043;52.184;8.690;2023-02-28T17:28:51;13.23;;;7.77;;
4055;SDS011;2043;52.184;8.690;2023-02-28T17:31:18;17.37;;;7.90;;
4055;SDS011;2043;52.184;8.690;2023-02-28T17:33:45;18.13;;;8.20;;
4055;SDS011;2043;52.184;8.690;2023-02-28T17:36:13;78.33;;;26.17;;
4055;SDS011;2043;52.184;8.690;2023-02-28T17:38:41;35.80;;;13.00;;
4055;SDS011;2043;52.184;8.690;2023-02-28T17:41:11;35.00;;;12.93;;
4055;SDS011;2043;52.184;8.690;2023-02-28T17:43:38;26.70;;;11.70;;
4055;SDS011;2043;52.184;8.690;2023-02-28T17:46:06;13.23;;;6.40;;
4055;SDS011;2043;52.184;8.690;2023-02-28T17:48:40;15.93;;;7.20;;
4055;SDS011;2043;52.184;8.690;2023-02-28T17:51:08;20.73;;;8.10;;
4055;SDS011;2043;52.184;8.690;2023-02-28T17:53:38;17.80;;;6.47;;
4055;SDS011;2043;52.184;8.690;2023-02-28T17:56:05;24.63;;;7.27;;
4055;SDS011;2043;52.184;8.690;2023-02-28T17:58:37;18.83;;;6.40;;
4055;SDS011;2043;52.184;8.690;2023-02-28T18:01:04;14.10;;;7.17;;
4055;SDS011;2043;52.184;8.690;2023-02-28T18:03:31;19.27;;;7.07;;
4055;SDS011;2043;52.184;8.690;2023-02-28T18:05:58;20.30;;;7.20;;
4055;SDS011;2043;52.184;8.690;2023-02-28T18:08:25;17.27;;;6.97;;
4055;SDS011;2043;52.184;8.690;2023-02-28T18:10:52;20.43;;;7.83;;
4055;SDS011;2043;52.184;8.690;2023-02-28T18:13:19;12.83;;;7.40;;
4055;SDS011;2043;52.184;8.690;2023-02-28T18:15:46;16.30;;;7.80;;
4055;SDS011;2043;52.184;8.690;2023-02-28T18:18:13;18.03;;;8.03;;
4055;SDS011;2043;52.184;8.690;2023-02-28T18:20:41;23.53;;;8.73;;
4055;SDS011;2043;52.184;8.690;2023-02-28T18:23:08;17.87;;;8.73;;